createdAt,value
2019-04-25T00:00:48.108Z,25.43
2019-04-25T00:03:22.927Z,34.17
2019-04-25T00:05:56.729Z,34.30
2019-04-25T00:08:31.199Z,24.07
2019-04-25T00:11:04.264Z,27.53
2019-04-25T00:13:38.040Z,20.83
2019-04-25T00:16:11.684Z,21.50
2019-04-25T00:18:44.976Z,25.13
2019-04-25T00:21:40.412Z,29.77
2019-04-25T00:24:26.102Z,27.60
2019-04-25T00:26:59.967Z,33.00
2019-04-25T00:29:33.584Z,34.07
2019-04-25T00:32:13.631Z,27.33
2019-04-25T00:34:46.815Z,34.17
2019-04-25T00:37:19.959Z,33.33
2019-04-25T00:39:53.516Z,36.83
2019-04-25T00:42:26.480Z,34.00
2019-04-25T00:44:59.764Z,31.10
2019-04-25T00:47:33.050Z,28.83
2019-04-25T00:50:06.914Z,32.87
2019-04-25T00:52:42.405Z,21.53
2019-04-25T00:55:26.109Z,29.73
2019-04-25T00:57:52.851Z,26.57
2019-04-25T01:00:44.903Z,31.03
2019-04-25T01:03:24.830Z,38.93
2019-04-25T01:05:57.927Z,40.43
2019-04-25T01:08:31.941Z,32.23
2019-04-25T01:11:05.360Z,22.60
2019-04-25T01:13:38.931Z,33.97
2019-04-25T01:16:12.197Z,34.37
2019-04-25T01:18:46.793Z,35.20
2019-04-25T01:21:19.839Z,22.00
2019-04-25T01:23:54.455Z,31.20
2019-04-25T01:26:27.755Z,25.03
2019-04-25T01:29:00.789Z,25.43
2019-04-25T01:31:34.939Z,25.00
2019-04-25T01:34:11.087Z,27.07
2019-04-25T01:36:58.312Z,25.20
2019-04-25T01:39:51.170Z,23.70
2019-04-25T01:42:53.645Z,25.27
2019-04-25T01:45:30.766Z,18.70
2019-04-25T01:48:04.885Z,22.93
2019-04-25T01:50:37.780Z,29.90
2019-04-25T01:53:10.634Z,17.50
2019-04-25T01:55:53.279Z,27.77
2019-04-25T01:58:19.039Z,27.20
2019-04-25T02:00:54.732Z,23.67
2019-04-25T02:03:27.384Z,23.83
2019-04-25T02:06:00.546Z,25.27
2019-04-25T02:08:34.056Z,24.87
2019-04-25T02:11:21.291Z,24.73
2019-04-25T02:13:55.643Z,23.63
2019-04-25T02:16:28.892Z,29.77
2019-04-25T02:19:04.047Z,22.80
2019-04-25T02:21:36.861Z,25.07
2019-04-25T02:24:10.285Z,27.10
2019-04-25T02:26:43.802Z,23.70
2019-04-25T02:29:17.097Z,30.17
2019-04-25T02:31:50.371Z,29.00
2019-04-25T02:34:25.029Z,18.40
2019-04-25T02:37:01.025Z,21.57
2019-04-25T02:39:36.780Z,17.00
2019-04-25T02:42:08.565Z,16.80
2019-04-25T02:44:46.316Z,20.03
2019-04-25T02:47:36.935Z,21.53
2019-04-25T02:50:36.196Z,22.77
2019-04-25T02:53:37.302Z,28.67
2019-04-25T02:56:27.481Z,22.30
2019-04-25T02:58:44.360Z,30.17
2019-04-25T03:01:23.435Z,30.43
2019-04-25T03:03:54.640Z,25.10
2019-04-25T03:06:29.262Z,27.00
2019-04-25T03:09:04.022Z,27.63
2019-04-25T03:11:37.656Z,31.73
2019-04-25T03:14:10.897Z,32.43
2019-04-25T03:16:44.884Z,32.43
2019-04-25T03:19:26.428Z,28.50
2019-04-25T03:22:05.876Z,23.60
2019-04-25T03:24:37.078Z,20.70
2019-04-25T03:27:10.087Z,21.30
2019-04-25T03:29:45.497Z,18.70
2019-04-25T03:32:28.007Z,16.90
2019-04-25T03:34:54.805Z,21.67
2019-04-25T03:37:28.326Z,15.70
2019-04-25T03:40:02.710Z,22.93
2019-04-25T03:42:35.859Z,18.73
2019-04-25T03:45:09.377Z,19.10
2019-04-25T03:47:43.235Z,24.23
2019-04-25T03:50:16.646Z,26.67
2019-04-25T03:52:50.149Z,24.43
2019-04-25T03:55:24.076Z,23.13
2019-04-25T03:57:57.273Z,23.20
2019-04-25T04:00:30.781Z,24.47
2019-04-25T04:03:06.464Z,24.33
2019-04-25T04:05:39.785Z,20.83
2019-04-25T04:08:14.835Z,21.13
2019-04-25T04:10:47.800Z,21.20
2019-04-25T04:13:20.897Z,25.43
2019-04-25T04:15:54.177Z,20.63
2019-04-25T04:18:47.668Z,20.70
2019-04-25T04:21:39.784Z,17.60
2019-04-25T04:24:25.878Z,14.57
2019-04-25T04:27:11.999Z,16.10
2019-04-25T04:29:46.240Z,15.13
2019-04-25T04:32:20.320Z,17.23
2019-04-25T04:34:54.088Z,23.30
2019-04-25T04:37:29.403Z,17.70
2019-04-25T04:40:03.671Z,20.53
2019-04-25T04:42:37.277Z,15.13
2019-04-25T04:45:10.553Z,21.67
2019-04-25T04:47:43.895Z,15.03
2019-04-25T04:50:17.370Z,10.73
2019-04-25T04:52:50.947Z,12.33
2019-04-25T04:55:25.505Z,16.47
2019-04-25T04:58:01.395Z,13.87
2019-04-25T05:00:34.522Z,13.90
2019-04-25T05:03:24.278Z,12.90
2019-04-25T05:06:20.539Z,14.77
2019-04-25T05:08:58.000Z,14.60
2019-04-25T05:11:31.629Z,13.80
2019-04-25T05:14:05.006Z,15.23
2019-04-25T05:16:38.641Z,16.80
2019-04-25T05:19:13.995Z,13.03
2019-04-25T05:21:46.337Z,19.80
2019-04-25T05:24:26.099Z,16.03
2019-04-25T05:26:58.647Z,11.73
2019-04-25T05:29:31.865Z,17.87
2019-04-25T05:32:04.964Z,13.30
2019-04-25T05:34:38.833Z,8.93
2019-04-25T05:37:14.352Z,10.37
2019-04-25T05:39:47.120Z,10.93
2019-04-25T05:42:26.649Z,11.70
2019-04-25T05:45:01.027Z,13.83
2019-04-25T05:47:34.713Z,13.33
2019-04-25T05:50:09.466Z,9.50
2019-04-25T05:52:43.894Z,13.07
2019-04-25T05:55:20.813Z,13.23
2019-04-25T05:57:55.104Z,14.43
2019-04-25T06:00:29.130Z,12.77
2019-04-25T06:03:04.538Z,13.70
2019-04-25T06:05:38.055Z,16.93
2019-04-25T06:08:14.009Z,14.10
2019-04-25T06:11:06.537Z,16.07
2019-04-25T06:14:00.346Z,18.53
2019-04-25T06:16:35.429Z,16.03
2019-04-25T06:19:26.532Z,19.83
2019-04-25T06:22:00.876Z,16.87
2019-04-25T06:24:45.740Z,23.10
2019-04-25T06:27:28.408Z,23.80
2019-04-25T06:30:05.556Z,21.97
2019-04-25T06:32:39.988Z,21.50
2019-04-25T06:35:14.354Z,21.73
2019-04-25T06:37:47.852Z,17.67
2019-04-25T06:40:24.158Z,22.63
2019-04-25T06:43:00.643Z,21.73
2019-04-25T06:46:09.527Z,21.47
2019-04-25T06:48:48.167Z,22.80
2019-04-25T06:51:25.606Z,31.20
2019-04-25T06:54:05.537Z,27.83
2019-04-25T06:56:38.917Z,30.10
2019-04-25T06:59:27.582Z,24.50
2019-04-25T07:02:04.248Z,25.33
2019-04-25T07:04:38.545Z,25.77
2019-04-25T07:07:14.657Z,23.27
2019-04-25T07:09:47.953Z,28.83
2019-04-25T07:12:24.081Z,29.00
2019-04-25T07:14:57.268Z,32.33
2019-04-25T07:17:34.987Z,30.07
2019-04-25T07:20:13.832Z,23.83
2019-04-25T07:22:48.231Z,23.63
2019-04-25T07:25:25.232Z,30.87
2019-04-25T07:28:24.069Z,26.90
2019-04-25T07:31:15.040Z,26.50
2019-04-25T07:33:53.859Z,31.87
2019-04-25T07:36:28.236Z,25.13
2019-04-25T07:39:09.591Z,34.87
2019-04-25T07:41:40.285Z,16.13
2019-04-25T07:44:16.099Z,36.70
2019-04-25T07:46:51.743Z,22.60
2019-04-25T07:49:28.380Z,27.43
2019-04-25T07:52:03.592Z,26.63
2019-04-25T07:54:38.930Z,28.83
2019-04-25T07:57:13.544Z,21.50
2019-04-25T07:59:47.813Z,23.50
2019-04-25T08:02:23.355Z,21.83
2019-04-25T08:04:57.825Z,26.67
2019-04-25T08:07:31.630Z,23.77
2019-04-25T08:10:07.145Z,29.83
2019-04-25T08:12:44.053Z,29.40
2019-04-25T08:15:41.765Z,26.70
2019-04-25T08:18:19.004Z,25.20
2019-04-25T08:20:53.421Z,27.47
2019-04-25T08:23:29.318Z,23.10
2019-04-25T08:26:07.153Z,21.33
2019-04-25T08:28:54.003Z,20.77
2019-04-25T08:31:18.396Z,26.27
2019-04-25T08:34:03.454Z,21.50
2019-04-25T08:36:39.842Z,21.93
2019-04-25T08:39:20.620Z,22.43
2019-04-25T08:41:54.562Z,18.80
2019-04-25T08:44:28.717Z,26.87
2019-04-25T08:47:04.571Z,24.03
2019-04-25T08:49:49.550Z,25.30
2019-04-25T08:52:24.404Z,25.33
2019-04-25T08:55:10.000Z,26.43
2019-04-25T08:58:05.313Z,19.67
2019-04-25T09:01:00.674Z,20.93
2019-04-25T09:03:40.166Z,23.87
2019-04-25T09:06:14.137Z,26.57
2019-04-25T09:08:47.220Z,19.97
2019-04-25T09:11:26.785Z,24.47
2019-04-25T09:14:00.250Z,25.23
2019-04-25T09:16:35.473Z,15.83
2019-04-25T09:19:10.256Z,29.93
2019-04-25T09:24:28.336Z,20.07
2019-04-25T09:27:03.557Z,22.67
2019-04-25T09:29:37.032Z,31.63
2019-04-25T09:32:13.754Z,28.93
2019-04-25T09:34:48.057Z,27.13
2019-04-25T09:37:22.622Z,24.23
2019-04-25T09:40:07.392Z,21.33
2019-04-25T09:42:41.499Z,26.53
2019-04-25T09:45:50.898Z,24.53
2019-04-25T09:48:30.703Z,27.37
2019-04-25T09:51:25.680Z,31.67
2019-04-25T09:54:20.756Z,28.77
2019-04-25T09:56:57.617Z,23.27
2019-04-25T09:59:33.194Z,28.77
2019-04-25T10:02:08.235Z,23.87
2019-04-25T10:04:41.307Z,23.47
2019-04-25T10:07:15.008Z,32.30
2019-04-25T10:09:48.615Z,27.00
2019-04-25T10:12:23.104Z,31.50
2019-04-25T10:15:26.735Z,23.43
2019-04-25T10:18:00.572Z,31.60
2019-04-25T10:20:34.342Z,26.80
2019-04-25T10:23:09.448Z,28.30
2019-04-25T10:25:44.158Z,26.93
2019-04-25T10:28:18.953Z,24.23
2019-04-25T10:30:53.157Z,22.73
2019-04-25T10:33:29.264Z,23.73
2019-04-25T10:36:04.194Z,28.57
2019-04-25T10:38:37.498Z,27.07
2019-04-25T10:41:12.125Z,24.87
2019-04-25T10:43:46.112Z,25.10
2019-04-25T10:46:24.337Z,21.23
2019-04-25T10:48:57.337Z,27.50
2019-04-25T10:51:37.672Z,32.73
2019-04-25T10:54:11.372Z,22.50
2019-04-25T10:56:47.033Z,20.97
2019-04-25T10:59:19.615Z,21.60
2019-04-25T11:01:53.860Z,16.13
2019-04-25T11:04:33.684Z,17.43
2019-04-25T11:07:07.738Z,23.67
2019-04-25T11:09:44.946Z,21.60
2019-04-25T11:12:17.553Z,17.47
2019-04-25T11:14:50.904Z,20.33
2019-04-25T11:17:24.358Z,21.30
2019-04-25T11:19:57.807Z,18.53
2019-04-25T11:22:32.007Z,19.10
2019-04-25T11:25:05.710Z,14.20
2019-04-25T11:27:39.776Z,16.90
2019-04-25T11:30:15.257Z,19.80
2019-04-25T11:32:50.094Z,21.03
2019-04-25T11:35:30.359Z,27.73
2019-04-25T11:38:08.695Z,17.30
2019-04-25T11:40:56.857Z,17.70
2019-04-25T11:43:35.642Z,21.80
2019-04-25T11:46:31.008Z,22.47
2019-04-25T11:49:07.435Z,16.70
2019-04-25T11:51:48.183Z,20.50
2019-04-25T11:54:27.574Z,16.33
2019-04-25T11:57:10.562Z,15.17
2019-04-25T11:59:50.730Z,21.83
2019-04-25T12:02:37.753Z,16.10
2019-04-25T12:05:19.177Z,20.80
2019-04-25T12:08:04.917Z,20.77
2019-04-25T12:10:45.499Z,23.87
2019-04-25T12:13:24.267Z,22.33
2019-04-25T12:16:04.180Z,17.93
2019-04-25T12:18:48.085Z,17.03
2019-04-25T12:21:24.075Z,15.13
2019-04-25T12:24:05.749Z,21.07
2019-04-25T12:26:56.002Z,17.80
2019-04-25T12:29:39.349Z,15.63
2019-04-25T12:32:18.280Z,18.23
2019-04-25T12:34:57.997Z,19.23
2019-04-25T12:37:36.641Z,17.50
2019-04-25T12:40:20.869Z,14.13
2019-04-25T12:43:01.075Z,17.33
2019-04-25T12:46:01.814Z,12.90
2019-04-25T12:48:46.053Z,15.13
2019-04-25T12:51:25.643Z,16.83
2019-04-25T12:54:21.692Z,15.80
2019-04-25T12:57:04.374Z,15.23
2019-04-25T12:59:40.762Z,17.53
2019-04-25T13:02:15.521Z,14.40
2019-04-25T13:04:51.777Z,17.83
2019-04-25T13:07:27.961Z,13.37
2019-04-25T13:10:05.700Z,19.97
2019-04-25T13:12:44.348Z,21.97
2019-04-25T13:15:26.609Z,11.23
2019-04-25T13:18:10.058Z,12.90
2019-04-25T13:20:46.390Z,11.33
2019-04-25T13:23:27.818Z,15.53
2019-04-25T13:26:05.462Z,15.33
2019-04-25T13:29:09.251Z,13.60
2019-04-25T13:32:06.482Z,16.83
2019-04-25T13:34:49.240Z,12.67
2019-04-25T13:37:28.702Z,18.53
2019-04-25T13:40:06.803Z,24.13
2019-04-25T13:42:48.733Z,25.13
2019-04-25T13:45:47.493Z,20.50
2019-04-25T13:48:26.982Z,17.90
2019-04-25T13:51:09.240Z,20.57
2019-04-25T13:53:58.590Z,25.80
2019-04-25T13:56:40.534Z,26.10
2019-04-25T13:59:16.440Z,19.73
2019-04-25T14:01:57.618Z,24.43
2019-04-25T14:04:37.047Z,19.90
2019-04-25T14:07:13.047Z,21.00
2019-04-25T14:09:50.018Z,22.63
2019-04-25T14:12:32.047Z,19.03
2019-04-25T14:15:10.227Z,15.43
2019-04-25T14:18:05.069Z,15.43
2019-04-25T14:21:10.470Z,11.53
2019-04-25T14:23:48.390Z,9.00
2019-04-25T14:26:27.038Z,11.57
2019-04-25T14:29:08.601Z,10.87
2019-04-25T14:31:49.875Z,13.17
2019-04-25T14:34:30.743Z,7.40
2019-04-25T14:37:09.506Z,9.77
2019-04-25T14:39:55.312Z,8.03
2019-04-25T14:42:39.059Z,12.03
2019-04-25T14:45:24.809Z,11.80
2019-04-25T14:48:03.313Z,13.20
2019-04-25T14:50:40.332Z,11.23
2019-04-25T14:53:34.063Z,8.63
2019-04-25T14:56:41.787Z,12.87
2019-04-25T14:59:20.954Z,9.83
2019-04-25T15:02:02.594Z,10.47
2019-04-25T15:04:43.042Z,8.93
2019-04-25T15:07:19.853Z,12.87
2019-04-25T15:10:07.233Z,16.30
2019-04-25T15:12:42.873Z,15.13
2019-04-25T15:15:16.877Z,14.73
2019-04-25T15:17:50.430Z,15.30
2019-04-25T15:20:24.826Z,15.73
2019-04-25T15:22:59.977Z,15.23
2019-04-25T15:25:33.993Z,15.10
2019-04-25T15:28:10.518Z,20.20
2019-04-25T15:30:43.948Z,13.57
2019-04-25T15:33:17.578Z,16.87
2019-04-25T15:35:57.198Z,13.77
2019-04-25T15:38:38.956Z,20.83
2019-04-25T15:41:39.728Z,19.43
2019-04-25T15:44:38.855Z,18.23
2019-04-25T15:47:17.912Z,17.00
2019-04-25T15:49:51.827Z,12.73
2019-04-25T15:52:26.666Z,19.90
2019-04-25T15:55:06.893Z,24.37
2019-04-25T15:57:36.050Z,18.20
2019-04-25T16:00:16.229Z,19.73
2019-04-25T16:02:50.123Z,16.43
2019-04-25T16:05:25.655Z,15.00
2019-04-25T16:08:01.844Z,26.30
2019-04-25T16:10:36.575Z,17.67
2019-04-25T16:13:12.026Z,24.50
2019-04-25T16:15:48.289Z,17.50
2019-04-25T16:18:23.761Z,20.83
2019-04-25T16:21:01.033Z,23.13
2019-04-25T16:23:36.388Z,22.80
2019-04-25T16:26:11.298Z,17.80
2019-04-25T16:28:46.524Z,22.67
2019-04-25T16:31:23.389Z,19.50
2019-04-25T16:34:10.246Z,25.77
2019-04-25T16:36:49.571Z,20.17
2019-04-25T16:39:26.214Z,22.20
2019-04-25T16:42:00.706Z,20.67
2019-04-25T16:44:36.149Z,22.33
2019-04-25T16:47:10.235Z,20.10
2019-04-25T16:49:46.224Z,16.10
2019-04-25T16:52:22.133Z,18.97
2019-04-25T16:54:59.881Z,23.30
2019-04-25T16:57:37.377Z,22.57
2019-04-25T17:00:27.682Z,26.17
2019-04-25T17:03:02.981Z,22.77
2019-04-25T17:05:39.265Z,26.43
2019-04-25T17:08:15.447Z,27.23
2019-04-25T17:10:51.492Z,19.57
2019-04-25T17:13:26.918Z,24.13
2019-04-25T17:16:23.403Z,19.53
2019-04-25T17:19:07.143Z,21.17
2019-04-25T17:21:42.973Z,22.60
2019-04-25T17:24:19.700Z,23.13
2019-04-25T17:26:55.008Z,22.47
2019-04-25T17:29:34.548Z,24.23
2019-04-25T17:32:21.548Z,23.40
2019-04-25T17:35:27.902Z,19.23
2019-04-25T17:38:07.655Z,17.83
2019-04-25T17:40:45.430Z,20.33
2019-04-25T17:43:21.339Z,17.80
2019-04-25T17:45:58.016Z,23.60
2019-04-25T17:48:38.738Z,23.80
2019-04-25T17:51:17.648Z,24.20
2019-04-25T17:53:52.593Z,20.40
2019-04-25T17:56:29.009Z,20.67
2019-04-25T17:59:04.851Z,17.27
2019-04-25T18:01:40.072Z,25.50
2019-04-25T18:04:14.098Z,14.13
2019-04-25T18:06:55.649Z,16.67
2019-04-25T18:09:36.764Z,20.90
2019-04-25T18:12:11.637Z,19.53
2019-04-25T18:14:46.239Z,20.83
2019-04-25T18:17:20.413Z,19.10
2019-04-25T18:20:05.701Z,15.30
2019-04-25T18:23:00.086Z,19.37
2019-04-25T18:25:51.749Z,20.23
2019-04-25T18:28:39.436Z,17.37
2019-04-25T18:31:16.882Z,17.40
2019-04-25T18:34:03.638Z,23.53
2019-04-25T18:36:54.988Z,22.53
2019-04-25T18:39:42.500Z,20.60
2019-04-25T18:42:33.761Z,24.23
2019-04-25T18:45:09.024Z,23.00
2019-04-25T18:47:44.509Z,23.00
2019-04-25T18:50:27.173Z,24.43
2019-04-25T18:53:20.817Z,23.33
2019-04-25T18:56:53.828Z,19.93
2019-04-25T18:59:53.611Z,23.53
2019-04-25T19:02:39.758Z,24.93
2019-04-25T19:05:36.451Z,23.70
2019-04-25T19:08:11.290Z,19.10
2019-04-25T19:10:48.319Z,21.03
2019-04-25T19:13:48.496Z,20.50
2019-04-25T19:16:28.210Z,19.33
2019-04-25T19:19:03.663Z,16.57
2019-04-25T19:21:37.875Z,21.13
2019-04-25T19:24:12.889Z,17.60
2019-04-25T19:26:50.178Z,16.20
2019-04-25T19:29:25.833Z,23.40
2019-04-25T19:32:10.628Z,20.37
2019-04-25T19:34:47.246Z,17.87
2019-04-25T19:37:24.346Z,17.97
2019-04-25T19:40:48.143Z,18.67
2019-04-25T19:43:47.028Z,25.80
2019-04-25T19:46:24.487Z,22.23
2019-04-25T19:49:13.160Z,19.97
2019-04-25T19:51:51.969Z,20.57
2019-04-25T19:54:35.775Z,20.10
2019-04-25T19:57:16.181Z,20.90
2019-04-25T19:59:57.663Z,17.90
2019-04-25T20:03:01.639Z,22.60
2019-04-25T20:05:58.470Z,20.33
2019-04-25T20:08:54.011Z,22.07
2019-04-25T20:11:49.323Z,23.67
2019-04-25T20:14:24.971Z,17.23
2019-04-25T20:17:02.426Z,18.37
2019-04-25T20:19:54.512Z,20.20
2019-04-25T20:22:34.559Z,17.47
2019-04-25T20:25:12.985Z,23.13
2019-04-25T20:27:52.879Z,22.67
2019-04-25T20:30:33.634Z,22.27
2019-04-25T20:33:21.113Z,18.40
2019-04-25T20:36:00.019Z,22.93
2019-04-25T20:38:55.446Z,23.80
2019-04-25T20:41:27.537Z,26.43
2019-04-25T20:44:03.290Z,27.50
2019-04-25T20:46:42.221Z,18.93
2019-04-25T20:49:20.525Z,22.37
2019-04-25T20:51:56.824Z,16.93
2019-04-25T20:54:36.618Z,22.37
2019-04-25T20:57:11.170Z,23.13
2019-04-25T21:00:14.521Z,17.40
2019-04-25T21:02:56.789Z,26.83
2019-04-25T21:05:34.653Z,21.53
2019-04-25T21:08:09.105Z,19.13
2019-04-25T21:10:51.970Z,21.93
2019-04-25T21:13:39.433Z,18.70
2019-04-25T21:16:35.871Z,24.73
2019-04-25T21:19:25.861Z,22.43
2019-04-25T21:22:03.285Z,20.40
2019-04-25T21:24:38.885Z,23.37
2019-04-25T21:27:15.201Z,20.27
2019-04-25T21:29:49.668Z,23.43
2019-04-25T21:32:24.881Z,19.97
2019-04-25T21:34:59.206Z,28.97
2019-04-25T21:37:32.775Z,23.30
2019-04-25T21:40:14.463Z,27.30
2019-04-25T21:42:56.685Z,17.10
2019-04-25T21:45:31.576Z,21.70
2019-04-25T21:48:06.098Z,21.73
2019-04-25T21:50:40.420Z,20.10
2019-04-25T21:53:14.232Z,21.30
2019-04-25T21:55:47.918Z,18.90
2019-04-25T21:58:25.794Z,21.00
2019-04-25T22:01:13.936Z,21.33
2019-04-25T22:03:50.516Z,22.60
2019-04-25T22:06:24.345Z,23.20
2019-04-25T22:08:59.185Z,21.60
2019-04-25T22:11:33.144Z,21.93
2019-04-25T22:14:08.288Z,24.80
2019-04-25T22:16:43.130Z,24.60
2019-04-25T22:19:17.323Z,21.00
2019-04-25T22:21:51.207Z,28.30
2019-04-25T22:24:26.019Z,23.33
2019-04-25T22:27:03.271Z,28.13
2019-04-25T22:29:43.149Z,19.93
2019-04-25T22:32:43.145Z,17.13
2019-04-25T22:35:35.877Z,19.90
2019-04-25T22:38:11.025Z,21.57
2019-04-25T22:40:44.817Z,19.33
2019-04-25T22:43:20.589Z,17.47
2019-04-25T22:45:54.169Z,18.07
2019-04-25T22:48:46.344Z,20.13
2019-04-25T22:51:22.215Z,23.43
2019-04-25T22:53:56.237Z,22.63
2019-04-25T22:56:30.207Z,20.27
2019-04-25T22:59:04.771Z,17.20
2019-04-25T23:01:55.380Z,23.43
2019-04-25T23:04:47.243Z,20.97
2019-04-25T23:07:20.817Z,23.80
2019-04-25T23:09:55.021Z,18.37
2019-04-25T23:12:28.995Z,18.40
2019-04-25T23:15:02.568Z,20.60
2019-04-25T23:17:37.968Z,23.47
2019-04-25T23:20:11.855Z,22.97
2019-04-25T23:22:45.481Z,23.00
2019-04-25T23:25:22.901Z,24.77
2019-04-25T23:28:16.641Z,23.03
2019-04-25T23:31:08.630Z,16.57
2019-04-25T23:33:42.291Z,14.53
2019-04-25T23:36:17.170Z,26.43
2019-04-25T23:38:50.225Z,17.93
2019-04-25T23:41:24.296Z,19.13
2019-04-25T23:43:58.388Z,25.73
2019-04-25T23:46:33.262Z,17.40
2019-04-25T23:49:07.895Z,20.17
2019-04-25T23:51:42.292Z,22.93
2019-04-25T23:54:17.139Z,22.63
2019-04-25T23:56:50.690Z,21.37
2019-04-25T23:59:24.045Z,21.97
